地図

経路データ

SID SEASON NUMBER BASIN SUBBASIN NAME ISO_TIME NATURE LAT LON WMO_WIND WMO_PRES WMO_AGENCY TRACK_TYPE DIST2LAND LANDFALL IFLAG USA_AGENCY USA_ATCF_ID USA_LAT USA_LON USA_RECORD USA_STATUS USA_WIND USA_PRES USA_SSHS USA_R34_NE USA_R34_SE USA_R34_SW USA_R34_NW USA_R50_NE USA_R50_SE USA_R50_SW USA_R50_NW USA_R64_NE USA_R64_SE USA_R64_SW USA_R64_NW USA_POCI USA_ROCI USA_RMW USA_EYE TOKYO_LAT TOKYO_LON TOKYO_GRADE TOKYO_WIND TOKYO_PRES TOKYO_R50_DIR TOKYO_R50_LONG TOKYO_R50_SHORT TOKYO_R30_DIR TOKYO_R30_LONG TOKYO_R30_SHORT TOKYO_LAND CMA_LAT CMA_LON CMA_CAT CMA_WIND CMA_PRES HKO_LAT HKO_LON HKO_CAT HKO_WIND HKO_PRES NEWDELHI_LAT NEWDELHI_LON NEWDELHI_GRADE NEWDELHI_WIND NEWDELHI_PRES NEWDELHI_CI NEWDELHI_DP NEWDELHI_POCI REUNION_LAT REUNION_LON REUNION_TYPE REUNION_WIND REUNION_PRES REUNION_TNUM REUNION_CI REUNION_RMW REUNION_R34_NE REUNION_R34_SE REUNION_R34_SW REUNION_R34_NW REUNION_R50_NE REUNION_R50_SE REUNION_R50_SW REUNION_R50_NW REUNION_R64_NE REUNION_R64_SE REUNION_R64_SW REUNION_R64_NW BOM_LAT BOM_LON BOM_TYPE BOM_WIND BOM_PRES BOM_TNUM BOM_CI BOM_RMW BOM_R34_NE BOM_R34_SE BOM_R34_SW BOM_R34_NW BOM_R50_NE BOM_R50_SE BOM_R50_SW BOM_R50_NW BOM_R64_NE BOM_R64_SE BOM_R64_SW BOM_R64_NW BOM_ROCI BOM_POCI BOM_EYE BOM_POS_METHOD BOM_PRES_METHOD NADI_LAT NADI_LON NADI_CAT NADI_WIND NADI_PRES WELLINGTON_LAT WELLINGTON_LON WELLINGTON_WIND WELLINGTON_PRES DS824_LAT DS824_LON DS824_STAGE DS824_WIND DS824_PRES TD9636_LAT TD9636_LON TD9636_STAGE TD9636_WIND TD9636_PRES TD9635_LAT TD9635_LON TD9635_WIND TD9635_PRES TD9635_ROCI NEUMANN_LAT NEUMANN_LON NEUMANN_CLASS NEUMANN_WIND NEUMANN_PRES MLC_LAT MLC_LON MLC_CLASS MLC_WIND MLC_PRES USA_GUST BOM_GUST BOM_GUST_PER REUNION_GUST REUNION_GUST_PER USA_SEAHGT USA_SEARAD_NE USA_SEARAD_SE USA_SEARAD_SW USA_SEARAD_NW STORM_SPEED STORM_DIR
1912286N18279 1912 53 NA CS NOT_NAMED 1912-10-11 12:00:00 TS 18.5000 -80.7000 35 hurdat_atl main 245 245 O_____________ hurdat_atl AL061912 18.5000 -80.7000 TS 35 0 9 298
1912286N18279 1912 53 NA CS NOT_NAMED 1912-10-11 15:00:00 TS 18.7002 -81.0998 main 290 290 P_____________ AL061912 18.7002 -81.0998 TS 35 0 9 298
1912286N18279 1912 53 NA CS NOT_NAMED 1912-10-11 18:00:00 TS 18.9000 -81.5000 35 hurdat_atl main 310 273 O_____________ hurdat_atl AL061912 18.9000 -81.5000 TS 35 0 9 298
1912286N18279 1912 53 NA CS NOT_NAMED 1912-10-11 21:00:00 TS 19.0999 -81.9001 main 273 240 P_____________ AL061912 19.0999 -81.9001 TS 37 0 9 298
1912286N18279 1912 53 NA CS NOT_NAMED 1912-10-12 00:00:00 TS 19.3000 -82.3000 40 hurdat_atl main 240 212 O_____________ hurdat_atl AL061912 19.3000 -82.3000 TS 40 0 8 298
1912286N18279 1912 53 NA CS NOT_NAMED 1912-10-12 03:00:00 TS 19.4999 -82.6926 main 212 191 P_____________ AL061912 19.4999 -82.6926 TS 42 0 9 298
1912286N18279 1912 53 NA CS NOT_NAMED 1912-10-12 06:00:00 TS 19.7000 -83.1000 45 hurdat_atl main 192 178 O_____________ hurdat_atl AL061912 19.7000 -83.1000 TS 45 0 9 297
1912286N18279 1912 53 NA CS NOT_NAMED 1912-10-12 09:00:00 TS 19.8999 -83.5351 main 182 182 P_____________ AL061912 19.8999 -83.5351 TS 47 0 9 295
1912286N18279 1912 53 NA CS NOT_NAMED 1912-10-12 12:00:00 TS 20.1000 -84.0000 50 hurdat_atl main 187 167 O_____________ hurdat_atl AL061912 20.1000 -84.0000 TS 50 0 10 294
1912286N18279 1912 53 NA CS NOT_NAMED 1912-10-12 15:00:00 TS 20.2999 -84.4851 main 167 145 P_____________ AL061912 20.2999 -84.4851 TS 52 0 10 293
1912286N18279 1912 53 NA CS NOT_NAMED 1912-10-12 18:00:00 TS 20.5000 -85.0000 55 hurdat_atl main 146 132 O_____________ hurdat_atl AL061912 20.5000 -85.0000 TS 55 0 11 292
1912286N18279 1912 53 NA CS NOT_NAMED 1912-10-12 21:00:00 TS 20.7074 -85.5425 main 132 66 P_____________ AL061912 20.7074 -85.5425 TS 57 0 11 291
1912286N18279 1912 53 NA CS NOT_NAMED 1912-10-13 00:00:00 TS 20.9000 -86.1000 60 hurdat_atl main 66 15 O_____________ hurdat_atl AL061912 20.9000 -86.1000 TS 60 0 11 289
1912286N18279 1912 53 NA CS NOT_NAMED 1912-10-13 03:00:00 TS 21.0574 -86.6577 main 0 0 P_____________ AL061912 21.0574 -86.6577 TS 55 0 11 286
1912286N18279 1912 53 NA NA NOT_NAMED 1912-10-13 06:00:00 TS 21.2000 -87.2000 50 hurdat_atl main 0 0 O_____________ hurdat_atl AL061912 21.2000 -87.2000 TS 50 0 10 287
1912286N18279 1912 53 NA NA NOT_NAMED 1912-10-13 09:00:00 TS 21.3574 -87.7225 main 0 0 P_____________ AL061912 21.3574 -87.7225 TS 47 0 10 288
1912286N18279 1912 53 NA NA NOT_NAMED 1912-10-13 12:00:00 TS 21.5000 -88.2000 45 hurdat_atl main 0 0 O_____________ hurdat_atl AL061912 21.5000 -88.2000 TS 45 0 9 287
1912286N18279 1912 53 NA GM NOT_NAMED 1912-10-13 15:00:00 TS 21.6148 -88.6226 main 11 11 P_____________ AL061912 21.6148 -88.6226 TS 47 0 8 285
1912286N18279 1912 53 NA GM NOT_NAMED 1912-10-13 18:00:00 TS 21.7000 -89.0000 50 hurdat_atl main 39 39 O_____________ hurdat_atl AL061912 21.7000 -89.0000 TS 50 0 7 282
1912286N18279 1912 53 NA GM NOT_NAMED 1912-10-13 21:00:00 TS 21.7574 -89.3651 main 56 56 P_____________ AL061912 21.7574 -89.3651 TS 52 0 7 279
1912286N18279 1912 53 NA GM NOT_NAMED 1912-10-14 00:00:00 TS 21.8000 -89.7000 55 hurdat_atl main 67 67 O_____________ hurdat_atl AL061912 21.8000 -89.7000 TS 55 0 6 278
1912286N18279 1912 53 NA GM NOT_NAMED 1912-10-14 03:00:00 TS 21.8424 -90.0001 main 67 67 P_____________ AL061912 21.8424 -90.0001 TS 57 0 6 280
1912286N18279 1912 53 NA GM NOT_NAMED 1912-10-14 06:00:00 TS 21.9000 -90.3000 60 hurdat_atl main 88 88 O_____________ hurdat_atl AL061912 21.9000 -90.3000 TS 60 0 6 284
1912286N18279 1912 53 NA GM NOT_NAMED 1912-10-14 09:00:00 TS 21.9849 -90.6351 main 105 105 P_____________ AL061912 21.9849 -90.6351 TS 62 0 7 287
1912286N18279 1912 53 NA GM NOT_NAMED 1912-10-14 12:00:00 TS 22.1000 -91.0000 65 hurdat_atl main 133 133 O_____________ hurdat_atl AL061912 22.1000 -91.0000 HU 65 1 7 290
1912286N18279 1912 53 NA GM NOT_NAMED 1912-10-14 15:00:00 TS 22.2350 -91.3926 main 167 167 P_____________ AL061912 22.2350 -91.3926 HU 67 1 8 292
1912286N18279 1912 53 NA GM NOT_NAMED 1912-10-14 18:00:00 TS 22.4000 -91.8000 70 hurdat_atl main 212 212 O_____________ hurdat_atl AL061912 22.4000 -91.8000 HU 70 1 8 295
1912286N18279 1912 53 NA GM NOT_NAMED 1912-10-14 21:00:00 TS 22.5925 -92.2075 main 257 257 P_____________ AL061912 22.5925 -92.2075 HU 72 1 8 298
1912286N18279 1912 53 NA GM NOT_NAMED 1912-10-15 00:00:00 TS 22.8000 -92.6000 75 hurdat_atl main 303 303 O_____________ hurdat_atl AL061912 22.8000 -92.6000 HU 75 1 8 300
1912286N18279 1912 53 NA GM NOT_NAMED 1912-10-15 03:00:00 TS 22.9848 -92.9503 main 349 349 P_____________ AL061912 22.9848 -92.9503 HU 77 1 8 302
1912286N18279 1912 53 NA GM NOT_NAMED 1912-10-15 06:00:00 TS 23.2000 -93.3000 80 hurdat_atl main 387 387 O_____________ hurdat_atl AL061912 23.2000 -93.3000 HU 80 1 8 306
1912286N18279 1912 53 NA GM NOT_NAMED 1912-10-15 09:00:00 TS 23.4850 -93.6925 main 417 368 P_____________ AL061912 23.4850 -93.6925 HU 82 1 10 309
1912286N18279 1912 53 NA GM NOT_NAMED 1912-10-15 12:00:00 TS 23.8000 -94.1000 85 hurdat_atl main 368 317 O_____________ hurdat_atl AL061912 23.8000 -94.1000 HU 85 2 10 309
1912286N18279 1912 53 NA GM NOT_NAMED 1912-10-15 15:00:00 TS 24.0924 -94.5003 main 317 266 P_____________ AL061912 24.0924 -94.5003 HU 85 2 9 309
1912286N18279 1912 53 NA GM NOT_NAMED 1912-10-15 18:00:00 TS 24.4000 -94.9000 85 hurdat_atl main 266 215 O_____________ hurdat_atl AL061912 24.4000 -94.9000 HU 85 2 10 311
1912286N18279 1912 53 NA GM NOT_NAMED 1912-10-15 21:00:00 TS 24.7425 -95.3076 main 215 160 P_____________ AL061912 24.7425 -95.3076 HU 85 2 10 314
1912286N18279 1912 53 NA GM NOT_NAMED 1912-10-16 00:00:00 TS 25.1000 -95.7000 85 hurdat_atl main 160 122 O_____________ hurdat_atl AL061912 25.1000 -95.7000 HU 85 2 10 316
1912286N18279 1912 53 NA GM NOT_NAMED 1912-10-16 03:00:00 TS 25.4499 -96.0652 main 112 73 P_____________ AL061912 25.4499 -96.0652 HU 85 2 9 318
1912286N18279 1912 53 NA GM NOT_NAMED 1912-10-16 06:00:00 TS 25.8000 -96.4000 85 hurdat_atl main 73 41 O_____________ hurdat_atl AL061912 25.8000 -96.4000 HU 85 2 9 320
1912286N18279 1912 53 NA GM NOT_NAMED 1912-10-16 09:00:00 TS 26.1575 -96.7226 main 45 31 P_____________ AL061912 26.1575 -96.7226 HU 85 2 9 322
1912286N18279 1912 53 NA GM NOT_NAMED 1912-10-16 12:00:00 TS 26.5000 -97.0000 85 hurdat_atl main 37 22 O_____________ hurdat_atl AL061912 26.5000 -97.0000 HU 85 2 8 325
1912286N18279 1912 53 NA GM NOT_NAMED 1912-10-16 15:00:00 TS 26.8074 -97.2302 main 29 9 P_____________ AL061912 26.8074 -97.2302 HU 85 2 7 329
1912286N18279 1912 53 NA GM NOT_NAMED 1912-10-16 18:00:00 TS 27.1000 -97.4000 85 hurdat_atl main 9 0 O_____________ hurdat_atl AL061912 27.1000 -97.4000 L HU 85 2 6 336
1912286N18279 1912 53 NA GM NOT_NAMED 1912-10-16 21:00:00 TS 27.4000 -97.5226 main 0 0 P_____________ AL061912 27.4000 -97.5226 HU 67 1 6 344
1912286N18279 1912 53 NA NA NOT_NAMED 1912-10-17 00:00:00 TS 27.7000 -97.6000 50 hurdat_atl main 0 0 O_____________ hurdat_atl AL061912 27.7000 -97.6000 TS 50 0 6 349
1912286N18279 1912 53 NA NA NOT_NAMED 1912-10-17 03:00:00 TS 28.0075 -97.6576 main 0 0 P_____________ AL061912 28.0075 -97.6576 TS 45 0 6 352
1912286N18279 1912 53 NA NA NOT_NAMED 1912-10-17 06:00:00 TS 28.3000 -97.7000 40 hurdat_atl main 0 0 O_____________ hurdat_atl AL061912 28.3000 -97.7000 TS 40 0 6 350
1912286N18279 1912 53 NA NA NOT_NAMED 1912-10-17 09:00:00 TS 28.5650 -97.7649 main 0 0 P_____________ AL061912 28.5650 -97.7649 TS 35 0 5 350
1912286N18279 1912 53 NA NA NOT_NAMED 1912-10-17 12:00:00 TS 28.8000 -97.8000 30 hurdat_atl main 0 0 O_____________ hurdat_atl AL061912 28.8000 -97.8000 TD 30 -1 5 0
1912286N18279 1912 53 NA NA NOT_NAMED 1912-10-17 15:00:00 TS 29.0150 -97.7726 main 0 0 P_____________ AL061912 29.0150 -97.7726 TD 27 -1 4 12
1912286N18279 1912 53 NA NA NOT_NAMED 1912-10-17 18:00:00 TS 29.2000 -97.7000 25 hurdat_atl main 0 0 O_____________ hurdat_atl AL061912 29.2000 -97.7000 TD 25 -1 4 23
1912286N18279 1912 53 NA NA NOT_NAMED 1912-10-17 21:00:00 TS 29.3575 -97.6050 main 0 0 P_____________ AL061912 29.3575 -97.6050 TD 25 -1 3 30
1912286N18279 1912 53 NA NA NOT_NAMED 1912-10-18 00:00:00 TS 29.5000 -97.5000 25 hurdat_atl main 0 O_____________ hurdat_atl AL061912 29.5000 -97.5000 TD 25 -1 3 32

IBTrACS Databaseについて

本データベースは、米国NOAAが公開する1842年以降の世界の熱帯低気圧のベストトラックデータアーカイブInternational Best Track Archive for Climate Stewardship (IBTrACS)を、ウェブで閲覧しやすい形式に変換したものです。

最終更新日:2021-10-25